Time;durP1;ratioP1;P1;durP2;ratioP2;P2;SDS_P1;SDS_P2;PMS_P1;PMS_P2;Temp;Humidity;BMP_temperature;BMP_pressure;BME280_temperature;BME280_humidity;BME280_pressure;Samples;Min_cycle;Max_cycle;Signal;HPM_P1;HPM_P2
2020/12/30 00:00:23;;;;;;;7.80;2.95;;;;;;;2.79;100.00;98739.03;5222094;28;20029;-84
2020/12/30 00:02:54;;;;;;;6.75;2.70;;;;;;;2.68;100.00;98746.31;5228242;28;20094;-81
2020/12/30 00:05:24;;;;;;;7.93;2.83;;;;;;;2.72;100.00;98742.75;5242981;28;20047;-78
2020/12/30 00:07:54;;;;;;;7.13;2.47;;;;;;;2.77;100.00;98752.00;5242848;28;20032;-79
2020/12/30 00:10:25;;;;;;;6.78;2.63;;;;;;;2.75;100.00;98755.53;5246615;28;20050;-81
2020/12/30 00:12:55;;;;;;;6.22;2.70;;;;;;;2.64;100.00;98755.03;5242096;28;20021;-80
2020/12/30 00:15:25;;;;;;;6.30;2.90;;;;;;;2.68;100.00;98741.16;5242733;28;20028;-79
2020/12/30 00:17:56;;;;;;;7.50;3.13;;;;;;;2.69;100.00;98750.59;5243117;28;20028;-81
2020/12/30 00:20:26;;;;;;;5.22;2.65;;;;;;;2.67;100.00;98749.78;5242939;28;20635;-82
2020/12/30 00:22:57;;;;;;;6.72;2.90;;;;;;;2.71;100.00;98751.38;5243051;28;20021;-84
2020/12/30 00:25:27;;;;;;;6.70;2.60;;;;;;;2.71;100.00;98751.38;5242084;28;20050;-82
2020/12/30 00:27:58;;;;;;;6.90;2.92;;;;;;;2.62;100.00;98751.66;5242783;28;20054;-80
2020/12/30 00:30:28;;;;;;;7.25;3.10;;;;;;;2.63;100.00;98755.91;5243028;28;20052;-79
2020/12/30 00:32:58;;;;;;;5.70;2.95;;;;;;;2.54;100.00;98759.66;5242074;28;20475;-84
2020/12/30 00:35:28;;;;;;;7.40;3.13;;;;;;;2.55;100.00;98758.78;5242545;28;20027;-78
2020/12/30 00:37:59;;;;;;;7.72;2.67;;;;;;;2.63;100.00;98756.78;5242705;28;20021;-83
2020/12/30 00:40:29;;;;;;;5.35;2.85;;;;;;;2.47;100.00;98758.16;5234554;28;20025;-81
2020/12/30 00:42:59;;;;;;;4.95;2.80;;;;;;;2.46;100.00;98747.91;5242606;28;20043;-82
2020/12/30 00:45:29;;;;;;;6.05;2.90;;;;;;;2.42;100.00;98748.91;5242604;28;20028;-81
2020/12/30 00:48:00;;;;;;;7.63;3.20;;;;;;;2.53;100.00;98746.81;5242919;28;20032;-82
2020/12/30 00:50:30;;;;;;;6.78;2.97;;;;;;;2.47;100.00;98750.44;5241343;28;20043;-79
2020/12/30 00:53:00;;;;;;;8.20;3.03;;;;;;;2.56;100.00;98751.88;5242592;28;20024;-84
2020/12/30 00:55:30;;;;;;;7.57;3.03;;;;;;;2.64;100.00;98755.88;5242720;28;20103;-84
2020/12/30 00:58:01;;;;;;;7.28;3.05;;;;;;;2.61;100.00;98755.13;5242964;28;20032;-82
2020/12/30 01:00:31;;;;;;;7.30;3.38;;;;;;;2.59;100.00;98762.94;5235423;28;20044;-81
2020/12/30 01:03:01;;;;;;;6.93;2.88;;;;;;;2.57;100.00;98763.88;5242306;28;20406;-81
2020/12/30 01:05:32;;;;;;;7.35;3.58;;;;;;;2.59;100.00;98772.38;5241354;28;20055;-85
2020/12/30 01:08:02;;;;;;;8.73;3.15;;;;;;;2.65;100.00;98767.88;5242068;28;20029;-84
2020/12/30 01:10:32;;;;;;;5.78;2.92;;;;;;;2.69;100.00;98768.63;5242365;28;20020;-81
2020/12/30 01:13:02;;;;;;;7.38;3.65;;;;;;;2.67;100.00;98775.56;5241786;28;20024;-80
2020/12/30 01:15:33;;;;;;;5.93;3.30;;;;;;;2.79;100.00;98780.31;5242488;28;20035;-80
2020/12/30 01:18:03;;;;;;;6.25;3.28;;;;;;;2.82;100.00;98777.66;5241639;28;20020;-79
2020/12/30 01:20:33;;;;;;;7.65;3.60;;;;;;;2.91;100.00;98779.91;5240646;28;20636;-79
2020/12/30 01:23:04;;;;;;;6.40;3.20;;;;;;;2.94;100.00;98787.53;5240212;28;20075;-82
2020/12/30 01:25:34;;;;;;;5.75;3.20;;;;;;;3.00;100.00;98784.75;5244911;28;20619;-81
2020/12/30 01:28:04;;;;;;;5.82;3.10;;;;;;;3.01;100.00;98791.63;5245819;28;20107;-81
2020/12/30 01:30:34;;;;;;;6.07;3.17;;;;;;;3.07;100.00;98792.25;5245658;28;20399;-84
2020/12/30 01:33:05;;;;;;;6.93;3.30;;;;;;;3.08;99.86;98793.94;5245283;28;20032;-81
2020/12/30 01:35:35;;;;;;;8.48;3.40;;;;;;;3.17;100.00;98797.94;5235226;28;20074;-81
2020/12/30 01:38:05;;;;;;;6.63;3.60;;;;;;;3.06;100.00;98789.69;5244428;28;20032;-86
2020/12/30 01:40:36;;;;;;;6.65;3.25;;;;;;;3.11;100.00;98787.81;5248076;28;20031;-78
2020/12/30 01:43:06;;;;;;;6.47;3.60;;;;;;;3.02;100.00;98788.13;5247341;28;20111;-83
2020/12/30 01:45:37;;;;;;;5.97;3.50;;;;;;;3.11;100.00;98792.97;5248123;28;20040;-80
2020/12/30 01:48:14;;;;;;;7.55;3.63;;;;;;;3.06;100.00;98787.94;5244857;28;20075;-82
2020/12/30 01:50:45;;;;;;;9.68;3.85;;;;;;;3.15;99.38;98785.06;5245206;28;20028;-81
2020/12/30 01:53:16;;;;;;;7.03;3.50;;;;;;;3.14;99.21;98793.72;5245197;28;20077;-83
2020/12/30 01:55:48;;;;;;;4.57;2.70;;;;;;;3.22;98.39;98802.00;5250227;28;20028;-78
2020/12/30 01:58:18;;;;;;;6.10;3.15;;;;;;;3.15;98.61;98794.53;5250996;28;20044;-78
2020/12/30 02:00:54;;;;;;;6.85;3.08;;;;;;;3.20;99.27;98800.41;5242810;28;20115;-79
2020/12/30 02:03:25;;;;;;;8.15;3.10;;;;;;;3.22;99.17;98808.94;5244769;28;20028;-82
2020/12/30 02:05:57;;;;;;;6.70;3.00;;;;;;;3.14;99.22;98803.16;5244230;28;20107;-80
2020/12/30 02:08:28;;;;;;;6.68;3.35;;;;;;;3.06;100.00;98807.75;5243829;28;20062;-78
2020/12/30 02:11:00;;;;;;;6.70;3.20;;;;;;;3.06;100.00;98828.41;5250000;28;20047;-84
2020/12/30 02:13:30;;;;;;;8.15;3.22;;;;;;;3.04;100.00;98835.34;5244724;28;20033;-81
2020/12/30 02:16:01;;;;;;;7.60;3.28;;;;;;;3.03;99.90;98829.34;5249494;28;20031;-81
2020/12/30 02:18:31;;;;;;;7.90;3.80;;;;;;;3.02;99.47;98834.56;5244906;28;20483;-82
2020/12/30 02:21:01;;;;;;;7.88;3.67;;;;;;;2.99;99.54;98830.34;5236469;28;20051;-81
2020/12/30 02:23:33;;;;;;;7.85;3.85;;;;;;;3.02;99.63;98842.31;5244277;28;20076;-80
2020/12/30 02:26:03;;;;;;;9.07;3.50;;;;;;;3.10;99.22;98842.88;5244377;28;20020;-85
2020/12/30 02:28:34;;;;;;;6.72;3.50;;;;;;;3.01;99.32;98838.88;5243386;28;20407;-81
2020/12/30 02:31:04;;;;;;;9.10;3.88;;;;;;;3.00;99.87;98838.94;5240841;28;20012;-81
2020/12/30 02:33:34;;;;;;;10.38;4.13;;;;;;;2.91;100.00;98844.38;5242586;28;20028;-81
2020/12/30 02:36:04;;;;;;;9.93;4.40;;;;;;;3.01;100.00;98848.38;5245812;28;20024;-80
2020/12/30 02:38:35;;;;;;;8.35;4.00;;;;;;;2.93;100.00;98845.19;5243961;28;20030;-81
2020/12/30 02:41:05;;;;;;;7.20;3.65;;;;;;;2.97;100.00;98863.09;5244402;28;20017;-80
2020/12/30 02:43:36;;;;;;;7.53;3.88;;;;;;;2.95;100.00;98857.13;5242770;28;20021;-80
2020/12/30 02:46:06;;;;;;;9.25;4.00;;;;;;;2.79;100.00;98855.94;5243872;28;20389;-79
2020/12/30 02:48:36;;;;;;;7.10;4.35;;;;;;;2.79;100.00;98860.25;5240420;28;20036;-80
2020/12/30 02:51:07;;;;;;;7.53;3.97;;;;;;;2.76;100.00;98868.09;5246336;28;20016;-83
2020/12/30 02:53:37;;;;;;;9.27;3.92;;;;;;;2.74;100.00;98865.56;5245906;28;20441;-79
2020/12/30 02:56:07;;;;;;;7.88;4.10;;;;;;;2.65;100.00;98872.75;5236964;28;20032;-79
2020/12/30 02:58:38;;;;;;;9.02;4.28;;;;;;;2.72;100.00;98881.97;5231401;28;20074;-87
2020/12/30 03:01:09;;;;;;;7.63;4.05;;;;;;;2.56;100.00;98876.47;5243161;28;20031;-83
2020/12/30 03:03:40;;;;;;;9.77;4.80;;;;;;;2.57;100.00;98883.31;5243715;28;20099;-78
2020/12/30 03:06:11;;;;;;;7.45;4.80;;;;;;;2.49;100.00;98884.44;5240933;28;20082;-83
2020/12/30 03:08:41;;;;;;;8.25;4.30;;;;;;;2.57;100.00;98882.44;5240233;28;20115;-79
2020/12/30 03:11:11;;;;;;;9.30;4.50;;;;;;;2.53;100.00;98884.25;5243306;28;20016;-78
2020/12/30 03:13:41;;;;;;;7.50;4.50;;;;;;;2.39;100.00;98883.88;5243236;28;20032;-78
2020/12/30 03:16:12;;;;;;;11.30;5.07;;;;;;;2.40;100.00;98885.56;5243676;28;20028;-78
2020/12/30 03:18:42;;;;;;;7.75;4.18;;;;;;;2.48;100.00;98885.31;5247696;28;20035;-81
2020/12/30 03:21:12;;;;;;;8.88;4.40;;;;;;;2.40;100.00;98879.53;5243092;28;20071;-83
2020/12/30 03:23:43;;;;;;;9.13;4.85;;;;;;;2.29;100.00;98882.44;5243306;28;20021;-81
2020/12/30 03:26:14;;;;;;;9.98;4.72;;;;;;;2.28;100.00;98885.91;5243494;28;20093;-81
2020/12/30 03:28:44;;;;;;;8.25;4.75;;;;;;;2.26;100.00;98886.84;5240371;28;20103;-82
2020/12/30 03:31:14;;;;;;;9.32;5.05;;;;;;;2.24;100.00;98892.06;5243374;28;20169;-82
2020/12/30 03:33:44;;;;;;;13.40;5.00;;;;;;;2.18;100.00;98888.81;5228153;28;20025;-84
2020/12/30 03:36:15;;;;;;;8.52;5.00;;;;;;;2.12;100.00;98888.97;5227385;28;20115;-83
2020/12/30 03:38:45;;;;;;;7.47;4.95;;;;;;;2.18;100.00;98888.81;5240899;28;20416;-82
2020/12/30 03:41:15;;;;;;;10.68;4.90;;;;;;;2.22;100.00;98887.81;5238000;28;20075;-84
2020/12/30 03:43:46;;;;;;;9.20;4.88;;;;;;;2.16;100.00;98885.44;5242315;28;20030;-79
2020/12/30 03:46:16;;;;;;;7.47;4.70;;;;;;;2.12;100.00;98883.81;5242683;28;20104;-79
2020/12/30 03:48:46;;;;;;;8.98;4.57;;;;;;;2.14;100.00;98887.22;5242538;28;20059;-80
2020/12/30 03:51:17;;;;;;;8.40;4.32;;;;;;;2.24;100.00;98886.91;5242839;28;20020;-79
2020/12/30 03:53:47;;;;;;;6.63;4.53;;;;;;;2.11;100.00;98887.28;5246138;28;20028;-79
2020/12/30 03:56:18;;;;;;;8.93;4.15;;;;;;;2.02;100.00;98884.97;5239077;28;20425;-79
2020/12/30 03:58:48;;;;;;;8.77;4.40;;;;;;;2.11;100.00;98888.13;5232620;28;20028;-79
2020/12/30 04:01:18;;;;;;;10.77;4.53;;;;;;;2.18;100.00;98889.63;5231926;28;20021;-79
2020/12/30 04:03:48;;;;;;;9.50;4.22;;;;;;;2.22;100.00;98890.41;5234203;28;20055;-80
2020/12/30 04:06:19;;;;;;;6.90;4.50;;;;;;;2.22;100.00;98890.41;5232066;28;20027;-79
2020/12/30 04:08:49;;;;;;;9.80;4.45;;;;;;;2.22;100.00;98893.84;5233206;28;20029;-79
2020/12/30 04:11:20;;;;;;;8.57;4.18;;;;;;;2.24;100.00;98894.63;5235315;28;20386;-79
2020/12/30 04:13:50;;;;;;;11.13;4.53;;;;;;;2.25;100.00;98892.88;5234069;28;20024;-80
2020/12/30 04:16:22;;;;;;;6.15;4.20;;;;;;;2.31;100.00;98895.28;5231969;28;20463;-80
2020/12/30 04:18:52;;;;;;;7.90;4.40;;;;;;;2.30;100.00;98896.19;5232503;28;20048;-79
2020/12/30 04:21:24;;;;;;;9.27;3.92;;;;;;;2.32;100.00;98896.97;5234191;28;20067;-79
2020/12/30 04:23:54;;;;;;;7.70;4.28;;;;;;;2.27;100.00;98885.94;5234468;28;20024;-79
2020/12/30 04:26:24;;;;;;;8.60;3.90;;;;;;;2.31;100.00;98882.41;5233817;28;20023;-80
2020/12/30 04:28:55;;;;;;;8.25;3.97;;;;;;;2.24;100.00;98891.19;5232740;28;20025;-79
2020/12/30 04:31:25;;;;;;;11.70;4.60;;;;;;;2.25;100.00;98893.75;5231979;28;20455;-79
2020/12/30 04:33:55;;;;;;;7.18;4.03;;;;;;;2.29;100.00;98897.03;5230911;28;20632;-79
2020/12/30 04:36:26;;;;;;;8.02;3.95;;;;;;;2.29;100.00;98891.88;5231686;28;20024;-79
2020/12/30 04:38:56;;;;;;;7.38;4.07;;;;;;;2.25;100.00;98895.44;5234579;28;20056;-79
2020/12/30 04:41:38;;;;;;;8.07;3.80;;;;;;;2.14;100.00;98892.38;5235978;28;20051;-79
2020/12/30 04:44:08;;;;;;;7.63;3.75;;;;;;;2.02;100.00;98890.97;5232513;28;20064;-79
2020/12/30 04:46:39;;;;;;;7.03;3.70;;;;;;;1.90;100.00;98893.91;5229830;28;20048;-79
2020/12/30 04:49:11;;;;;;;7.50;4.05;;;;;;;1.94;100.00;98898.06;5231317;28;20029;-79
2020/12/30 04:51:41;;;;;;;7.45;4.18;;;;;;;1.72;100.00;98906.44;5232828;28;20601;-79
2020/12/30 04:54:13;;;;;;;7.30;3.88;;;;;;;1.87;100.00;98904.31;5238108;28;20086;-79
2020/12/30 04:56:56;;;;;;;7.80;4.30;;;;;;;1.90;100.00;98908.50;5231622;28;20029;-79
2020/12/30 04:59:36;;;;;;;7.22;4.10;;;;;;;1.74;100.00;98903.81;5233714;28;20036;-79
2020/12/30 05:02:08;;;;;;;7.68;4.28;;;;;;;1.64;100.00;98905.81;5233268;28;20028;-79
2020/12/30 05:04:40;;;;;;;9.00;4.40;;;;;;;1.76;100.00;98909.78;5235836;28;20082;-79
2020/12/30 05:07:12;;;;;;;9.45;4.03;;;;;;;1.78;100.00;98911.41;5235339;28;20659;-80
2020/12/30 05:09:44;;;;;;;8.60;4.07;;;;;;;1.60;100.00;98911.06;5236269;28;20056;-80
2020/12/30 05:12:19;;;;;;;8.00;4.35;;;;;;;1.69;100.00;98913.38;5239293;28;20025;-79
2020/12/30 05:14:49;;;;;;;6.97;4.50;;;;;;;1.70;100.00;98915.94;5235331;28;20021;-79
2020/12/30 05:17:19;;;;;;;8.95;3.90;;;;;;;1.59;100.00;98917.94;5234315;28;20384;-79
2020/12/30 05:19:50;;;;;;;7.85;4.65;;;;;;;1.47;100.00;98928.56;5234385;28;20090;-79
2020/12/30 05:22:20;;;;;;;10.23;4.25;;;;;;;1.29;100.00;98931.59;5233847;28;20024;-79
2020/12/30 05:24:52;;;;;;;7.57;4.47;;;;;;;1.19;100.00;98937.00;5238912;28;20017;-79
2020/12/30 05:27:23;;;;;;;11.32;4.28;;;;;;;1.23;100.00;98933.50;5235604;28;20028;-81
2020/12/30 05:29:53;;;;;;;8.52;4.60;;;;;;;1.37;100.00;98939.97;5235759;28;20107;-80
2020/12/30 05:32:25;;;;;;;10.10;4.45;;;;;;;1.29;100.00;98944.47;5235051;28;20120;-81
2020/12/30 05:34:55;;;;;;;8.63;4.80;;;;;;;1.45;100.00;98956.06;5234495;28;20023;-79
2020/12/30 05:37:31;;;;;;;8.98;4.40;;;;;;;1.28;100.00;98953.06;5229609;28;20108;-79
2020/12/30 05:40:18;;;;;;;9.10;4.38;;;;;;;1.44;100.00;98949.22;5235701;28;20079;-79
2020/12/30 05:42:50;;;;;;;13.73;5.03;;;;;;;1.45;100.00;98950.94;5239406;28;20091;-81
2020/12/30 05:45:22;;;;;;;8.52;4.53;;;;;;;1.50;100.00;98949.06;5231933;28;20064;-81
2020/12/30 05:47:53;;;;;;;8.90;4.60;;;;;;;1.48;100.00;98945.69;5233535;28;20029;-81
2020/12/30 05:50:24;;;;;;;8.93;4.47;;;;;;;1.72;100.00;98950.19;5235661;28;20425;-81
2020/12/30 05:52:54;;;;;;;8.48;4.50;;;;;;;1.74;100.00;98950.16;5234455;28;20108;-80
2020/12/30 05:55:26;;;;;;;8.93;4.30;;;;;;;1.75;100.00;98949.28;5237653;28;20103;-81
2020/12/30 05:58:03;;;;;;;9.55;4.75;;;;;;;1.69;100.00;98944.28;5234962;28;20020;-80
2020/12/30 06:00:34;;;;;;;8.27;4.82;;;;;;;1.77;100.00;98948.34;5236295;28;20025;-80
2020/12/30 06:03:04;;;;;;;9.88;4.95;;;;;;;1.62;100.00;98953.91;5233557;28;20356;-80
2020/12/30 06:05:34;;;;;;;9.02;5.15;;;;;;;1.60;100.00;98965.94;5225462;28;20387;-81
2020/12/30 06:08:04;;;;;;;7.68;4.85;;;;;;;1.57;100.00;98960.88;5240635;28;20025;-81
2020/12/30 06:10:41;;;;;;;11.85;4.88;;;;;;;1.55;100.00;98967.81;5237658;28;20025;-81
2020/12/30 06:13:15;;;;;;;11.25;4.90;;;;;;;1.65;100.00;98971.84;5238080;28;20036;-81
2020/12/30 06:15:47;;;;;;;10.30;5.10;;;;;;;1.71;100.00;98973.41;5245275;28;20020;-81
2020/12/30 06:18:21;;;;;;;7.45;4.75;;;;;;;1.61;100.00;98977.94;5245500;28;20031;-81
2020/12/30 06:20:52;;;;;;;8.00;4.85;;;;;;;1.66;100.00;98986.41;5243902;28;20024;-81
2020/12/30 06:23:23;;;;;;;9.73;4.45;;;;;;;1.74;100.00;98993.94;5244155;28;20371;-81
2020/12/30 06:25:54;;;;;;;8.68;4.88;;;;;;;1.76;100.00;98998.13;5236262;28;20035;-81
2020/12/30 06:28:26;;;;;;;8.35;4.43;;;;;;;1.77;100.00;98989.53;5235515;28;20017;-81
2020/12/30 06:30:56;;;;;;;8.93;4.35;;;;;;;1.53;100.00;98989.31;5234106;28;20571;-80
2020/12/30 06:33:27;;;;;;;8.70;4.50;;;;;;;1.38;100.00;98994.84;5234260;28;20029;-79
2020/12/30 06:35:57;;;;;;;8.60;4.85;;;;;;;1.25;100.00;99006.31;5233803;28;20017;-80
2020/12/30 06:38:29;;;;;;;8.02;4.68;;;;;;;1.03;100.00;99007.69;5232743;28;20024;-81
2020/12/30 06:41:05;;;;;;;6.82;4.53;;;;;;;0.94;100.00;99013.91;5238220;28;20029;-81
2020/12/30 06:43:47;;;;;;;7.05;5.05;;;;;;;0.88;100.00;99015.75;5234099;28;20050;-80
2020/12/30 06:46:35;;;;;;;9.18;4.72;;;;;;;0.78;100.00;99020.25;5234216;28;20032;-81
2020/12/30 06:49:06;;;;;;;10.05;4.97;;;;;;;0.70;100.00;99024.69;5236259;28;20394;-81
2020/12/30 06:51:38;;;;;;;7.57;4.65;;;;;;;0.69;100.00;99015.28;5233600;28;20382;-81
2020/12/30 06:54:08;;;;;;;9.57;5.20;;;;;;;0.62;100.00;99025.75;5235349;28;20288;-81
2020/12/30 06:56:46;;;;;;;9.65;4.90;;;;;;;0.69;100.00;99027.31;5233409;28;20029;-80
2020/12/30 06:59:25;;;;;;;9.40;5.03;;;;;;;0.64;100.00;99039.41;5234811;28;20086;-81
2020/12/30 07:02:03;;;;;;;8.70;4.82;;;;;;;0.73;100.00;99034.06;5233343;28;20044;-81
2020/12/30 07:04:35;;;;;;;8.90;5.20;;;;;;;0.89;100.00;99031.13;5233012;28;20031;-81
2020/12/30 07:07:20;;;;;;;11.48;4.90;;;;;;;1.05;100.00;99035.06;5232039;28;20106;-80
2020/12/30 07:09:50;;;;;;;9.27;4.85;;;;;;;1.28;100.00;99039.69;5236172;28;20028;-82
2020/12/30 07:12:21;;;;;;;9.98;4.95;;;;;;;1.32;100.00;99039.59;5234384;28;20039;-82
2020/12/30 07:14:55;;;;;;;8.75;4.72;;;;;;;1.27;100.00;99049.09;5233245;28;20497;-82
2020/12/30 07:17:26;;;;;;;9.60;5.10;;;;;;;1.22;100.00;99056.09;5233754;28;20055;-81
2020/12/30 07:19:56;;;;;;;7.07;4.15;;;;;;;1.24;100.00;99056.91;5230440;28;20031;-81
2020/12/30 07:22:28;;;;;;;8.05;4.57;;;;;;;1.26;100.00;99062.03;5233098;28;20032;-81
2020/12/30 07:24:58;;;;;;;8.40;5.10;;;;;;;1.28;100.00;99060.25;5222722;28;20021;-81
2020/12/30 07:27:29;;;;;;;9.43;4.35;;;;;;;1.45;100.00;99053.84;5222861;28;20032;-81
2020/12/30 07:29:59;;;;;;;11.77;5.07;;;;;;;1.39;100.00;99066.84;5222959;28;20470;-81
2020/12/30 07:32:31;;;;;;;8.52;4.70;;;;;;;1.41;100.00;99066.81;5234470;28;20363;-79
2020/12/30 07:35:03;;;;;;;8.10;4.95;;;;;;;1.42;100.00;99074.47;5241123;28;20032;-79
2020/12/30 07:37:33;;;;;;;9.63;4.90;;;;;;;1.44;100.00;99072.72;5241833;28;20074;-79
2020/12/30 07:40:03;;;;;;;11.07;5.25;;;;;;;1.44;100.00;99062.44;5236448;28;20020;-79
2020/12/30 07:42:34;;;;;;;9.23;5.10;;;;;;;1.42;100.00;99077.06;5242827;28;20035;-80
2020/12/30 07:45:08;;;;;;;11.70;5.57;;;;;;;1.51;100.00;99073.44;5243385;28;20102;-80
2020/12/30 07:47:39;;;;;;;7.15;4.82;;;;;;;1.58;100.00;99083.53;5239875;28;20108;-80
2020/12/30 07:50:09;;;;;;;11.63;4.90;;;;;;;1.45;100.00;99084.72;5243191;28;20154;-80
2020/12/30 07:52:39;;;;;;;8.73;4.70;;;;;;;1.55;100.00;99086.19;5243144;28;20079;-80
2020/12/30 07:55:09;;;;;;;9.23;4.63;;;;;;;1.65;100.00;99082.53;5241593;28;20088;-83
2020/12/30 07:57:40;;;;;;;8.35;4.65;;;;;;;1.66;100.00;99088.50;5240045;28;20046;-79
2020/12/30 08:00:11;;;;;;;9.43;4.53;;;;;;;1.78;100.00;99089.06;5243012;28;20043;-79
2020/12/30 08:02:41;;;;;;;7.95;4.90;;;;;;;1.84;100.00;99088.91;5242075;28;20032;-79
2020/12/30 08:05:11;;;;;;;9.10;5.10;;;;;;;1.97;100.00;99096.28;5243126;28;20032;-79
2020/12/30 08:07:42;;;;;;;9.85;5.38;;;;;;;1.92;100.00;99097.28;5241208;28;20028;-79
2020/12/30 08:10:12;;;;;;;10.35;5.15;;;;;;;2.08;100.00;99102.03;5233740;28;20118;-79
2020/12/30 08:12:42;;;;;;;9.45;4.97;;;;;;;2.10;100.00;99107.13;5236452;28;20025;-79
2020/12/30 08:15:12;;;;;;;9.23;4.75;;;;;;;2.21;100.00;99112.84;5231669;28;20037;-79
2020/12/30 08:17:43;;;;;;;9.55;4.65;;;;;;;2.26;100.00;99114.44;5233211;28;20024;-80
2020/12/30 08:20:14;;;;;;;8.32;4.75;;;;;;;2.40;100.00;99119.22;5240147;28;20482;-80
2020/12/30 08:22:45;;;;;;;8.68;4.10;;;;;;;2.25;100.00;99123.06;5236907;28;20024;-81
2020/12/30 08:25:16;;;;;;;6.63;4.47;;;;;;;2.04;100.00;99131.34;5231047;28;20029;-81
2020/12/30 08:27:47;;;;;;;9.27;5.10;;;;;;;2.13;100.00;99128.50;5231482;28;20588;-82
2020/12/30 08:30:17;;;;;;;8.98;4.65;;;;;;;2.04;100.00;99133.91;5232907;28;20020;-81
2020/12/30 08:32:58;;;;;;;9.00;4.45;;;;;;;2.04;100.00;99136.50;5235729;28;20622;-81
2020/12/30 08:35:33;;;;;;;7.13;4.60;;;;;;;2.39;100.00;99133.00;5236916;28;20024;-81
2020/12/30 08:38:14;;;;;;;9.05;4.55;;;;;;;2.42;100.00;99130.34;5237825;28;20042;-80
2020/12/30 08:40:50;;;;;;;7.88;3.80;;;;;;;2.43;100.00;99132.88;5240824;28;20024;-80
2020/12/30 08:43:33;;;;;;;6.35;3.92;;;;;;;2.77;100.00;99127.66;5237635;28;20166;-81
2020/12/30 08:46:09;;;;;;;7.55;4.68;;;;;;;2.72;100.00;99129.53;5236728;28;20385;-80
2020/12/30 08:48:46;;;;;;;6.28;4.00;;;;;;;2.85;100.00;99136.03;5236127;28;20033;-80
2020/12/30 08:51:30;;;;;;;8.90;4.38;;;;;;;2.99;100.00;99133.94;5237226;28;20470;-80
2020/12/30 08:54:01;;;;;;;6.72;4.05;;;;;;;2.98;100.00;99137.38;5240639;28;20031;-80
2020/12/30 08:56:31;;;;;;;7.47;4.40;;;;;;;2.96;100.00;99144.31;5245052;28;20024;-80
2020/12/30 08:59:02;;;;;;;7.82;4.43;;;;;;;3.11;100.00;99138.72;5246220;28;20028;-84
2020/12/30 09:01:32;;;;;;;7.50;3.88;;;;;;;3.25;100.00;99137.44;5242223;28;20025;-83
2020/12/30 09:04:10;;;;;;;8.70;4.15;;;;;;;3.26;99.75;99136.56;5246017;28;20145;-81
2020/12/30 09:06:41;;;;;;;9.18;4.35;;;;;;;3.30;100.00;99142.44;5243349;28;20064;-83
2020/12/30 09:09:13;;;;;;;7.35;4.90;;;;;;;3.22;100.00;99150.41;5244442;28;20051;-80
2020/12/30 09:11:46;;;;;;;8.65;4.63;;;;;;;3.40;100.00;99156.78;5240983;28;20033;-81
2020/12/30 09:14:18;;;;;;;7.65;4.65;;;;;;;3.52;100.00;99146.94;5246448;28;20044;-84
2020/12/30 09:17:05;;;;;;;8.25;4.55;;;;;;;3.37;100.00;99156.88;5246354;28;20444;-79
2020/12/30 09:19:35;;;;;;;6.82;4.22;;;;;;;3.29;100.00;99161.41;5246027;28;20020;-81
2020/12/30 09:22:09;;;;;;;9.07;4.60;;;;;;;3.27;100.00;99163.19;5246244;28;20078;-82
2020/12/30 09:24:43;;;;;;;9.45;4.60;;;;;;;3.29;100.00;99158.81;5245855;28;20116;-82
2020/12/30 09:27:15;;;;;;;10.77;4.80;;;;;;;3.36;100.00;99161.19;5241475;28;20028;-82
2020/12/30 09:30:09;;;;;;;9.73;5.00;;;;;;;3.47;100.00;99168.59;5225464;28;20029;-81
2020/12/30 09:32:42;;;;;;;10.05;5.38;;;;;;;3.46;100.00;99166.91;5225473;28;20029;-83
2020/12/30 09:35:15;;;;;;;7.82;5.13;;;;;;;3.52;100.00;99157.25;5225275;28;20450;-80
2020/12/30 09:37:55;;;;;;;7.80;5.07;;;;;;;3.49;100.00;99156.50;5245991;28;20017;-81
2020/12/30 09:40:27;;;;;;;8.55;4.78;;;;;;;3.41;100.00;99159.34;5248400;28;20028;-81
2020/12/30 09:43:09;;;;;;;7.93;5.05;;;;;;;3.35;100.00;99163.81;5257057;28;20759;-79
2020/12/30 09:45:40;;;;;;;8.48;5.00;;;;;;;3.54;100.00;99159.81;5266411;28;20501;-80
2020/12/30 09:48:21;;;;;;;9.40;4.78;;;;;;;3.50;100.00;99158.22;5253925;28;20027;-79
2020/12/30 09:50:52;;;;;;;9.73;5.15;;;;;;;3.39;100.00;99161.09;5245772;28;20502;-81
2020/12/30 09:53:26;;;;;;;11.48;5.45;;;;;;;3.21;100.00;99159.03;5244531;28;20033;-78
2020/12/30 09:55:56;;;;;;;10.45;5.43;;;;;;;3.14;100.00;99162.69;5245512;28;20639;-79
2020/12/30 09:58:26;;;;;;;10.85;5.82;;;;;;;3.11;100.00;99159.34;5247457;28;20044;-78
2020/12/30 10:00:57;;;;;;;9.43;5.40;;;;;;;3.16;100.00;99167.84;5248307;28;20426;-80
2020/12/30 10:03:27;;;;;;;9.88;5.70;;;;;;;3.30;100.00;99165.66;5247749;28;20047;-81
2020/12/30 10:05:57;;;;;;;9.85;5.47;;;;;;;3.53;100.00;99160.69;5250287;28;20052;-81
2020/12/30 10:08:28;;;;;;;8.18;5.25;;;;;;;3.32;100.00;99163.88;5248566;28;20031;-81
2020/12/30 10:10:58;;;;;;;11.98;5.57;;;;;;;3.33;100.00;99168.19;5244598;28;20032;-82
2020/12/30 10:13:28;;;;;;;11.75;5.78;;;;;;;3.36;100.00;99173.25;5250023;28;20111;-79
2020/12/30 10:15:58;;;;;;;9.25;5.10;;;;;;;3.37;100.00;99172.38;5251667;28;20028;-79
2020/12/30 10:18:29;;;;;;;10.77;5.38;;;;;;;3.43;100.00;99173.03;5248370;28;20021;-80
2020/12/30 10:20:59;;;;;;;10.20;5.90;;;;;;;3.43;100.00;99167.00;5242125;28;20070;-80
2020/12/30 10:23:29;;;;;;;9.13;5.72;;;;;;;3.73;100.00;99172.94;5236747;28;20021;-79
2020/12/30 10:25:59;;;;;;;11.13;5.60;;;;;;;3.78;100.00;99165.06;5249397;28;20032;-80
2020/12/30 10:28:30;;;;;;;10.50;5.80;;;;;;;4.04;100.00;99165.94;5260381;28;20039;-81
2020/12/30 10:31:00;;;;;;;9.30;5.80;;;;;;;4.17;100.00;99162.06;5259617;28;20023;-80
2020/12/30 10:33:30;;;;;;;12.40;5.88;;;;;;;4.22;100.00;99169.66;5256962;28;20028;-80
2020/12/30 10:36:00;;;;;;;10.43;5.93;;;;;;;4.22;100.00;99169.66;5257114;28;20028;-80
2020/12/30 10:38:31;;;;;;;9.35;5.90;;;;;;;4.12;100.00;99176.03;5256867;28;20024;-81
2020/12/30 10:41:02;;;;;;;11.55;6.28;;;;;;;4.28;100.00;99165.13;5252077;28;20092;-80
2020/12/30 10:43:32;;;;;;;9.07;5.20;;;;;;;4.21;100.00;99176.56;5259652;28;20035;-80
2020/12/30 10:46:02;;;;;;;9.13;5.72;;;;;;;4.12;100.00;99174.28;5258968;28;20028;-80
2020/12/30 10:48:33;;;;;;;10.18;5.65;;;;;;;4.12;100.00;99186.38;5259442;28;20062;-80
2020/12/30 10:51:03;;;;;;;9.45;5.38;;;;;;;4.36;100.00;99178.66;5258144;28;20398;-80
2020/12/30 10:53:33;;;;;;;9.90;5.57;;;;;;;4.41;100.00;99183.66;5257780;28;20110;-80
2020/12/30 10:56:03;;;;;;;9.88;5.72;;;;;;;4.28;100.00;99184.97;5258352;28;20035;-80
2020/12/30 10:58:34;;;;;;;8.68;5.32;;;;;;;4.37;100.00;99185.53;5255291;28;20017;-80
2020/12/30 11:01:12;;;;;;;9.82;5.97;;;;;;;4.36;99.89;99189.00;5256193;28;20036;-80
2020/12/30 11:03:42;;;;;;;12.20;5.90;;;;;;;4.43;99.51;99190.47;5254655;28;20040;-80
2020/12/30 11:06:12;;;;;;;10.45;6.15;;;;;;;4.64;98.74;99192.34;5255535;28;20024;-80
2020/12/30 11:08:45;;;;;;;8.70;5.68;;;;;;;4.64;98.82;99188.94;5251842;28;20028;-80
2020/12/30 11:11:15;;;;;;;8.35;5.43;;;;;;;4.72;99.68;99180.00;5245782;28;20081;-80
2020/12/30 11:13:45;;;;;;;9.85;5.57;;;;;;;4.86;99.85;99180.38;5251743;28;20478;-80
2020/12/30 11:16:16;;;;;;;9.82;5.75;;;;;;;4.93;98.46;99184.41;5251737;28;20092;-80
2020/12/30 11:18:46;;;;;;;9.50;5.65;;;;;;;5.02;97.82;99178.06;5232600;28;20032;-79
2020/12/30 11:21:16;;;;;;;9.60;5.72;;;;;;;5.13;96.72;99181.97;5240782;28;20064;-80
2020/12/30 11:23:47;;;;;;;11.40;6.90;;;;;;;5.20;95.07;99183.44;5241331;28;21004;-80
2020/12/30 11:26:17;;;;;;;9.85;5.88;;;;;;;5.25;95.36;99181.53;5240883;28;20707;-80
2020/12/30 11:28:47;;;;;;;8.88;5.60;;;;;;;5.14;94.23;99188.84;5241168;28;20139;-80
2020/12/30 11:31:18;;;;;;;7.72;4.93;;;;;;;5.11;93.91;99186.34;5240932;28;20032;-80
2020/12/30 11:33:48;;;;;;;8.73;5.30;;;;;;;5.01;94.41;99190.16;5234582;28;20028;-80
2020/12/30 11:36:18;;;;;;;10.57;5.68;;;;;;;4.98;94.36;99189.44;5241300;28;20037;-80
2020/12/30 11:38:48;;;;;;;9.23;6.20;;;;;;;4.93;94.21;99180.97;5234151;28;20039;-81
2020/12/30 11:41:19;;;;;;;8.93;5.20;;;;;;;4.79;95.48;99181.47;5232917;28;20085;-80
2020/12/30 11:43:49;;;;;;;9.20;5.63;;;;;;;4.81;95.22;99174.50;5232871;28;20031;-80
2020/12/30 11:46:20;;;;;;;7.47;4.70;;;;;;;4.87;95.20;99170.84;5230802;28;20059;-80
2020/12/30 11:48:51;;;;;;;9.10;5.00;;;;;;;4.80;94.51;99161.63;5227914;28;20055;-80
2020/12/30 11:51:21;;;;;;;7.30;4.60;;;;;;;4.83;94.43;99167.50;5230372;28;20074;-80
2020/12/30 11:53:51;;;;;;;9.27;4.80;;;;;;;4.68;93.49;99157.72;5232657;28;20028;-80